sensor_id;sensor_type;location;lat;lon;timestamp;pressure;altitude;pressure_sealevel;temperature;humidity
47166;BME280;32930;51.112;13.762;2023-03-02T00:37:28;100188.19;;;0.82;70.38
47166;BME280;32930;51.112;13.762;2023-03-02T00:39:54;100183.66;;;0.77;70.38
47166;BME280;32930;51.112;13.762;2023-03-02T00:52:43;100176.63;;;0.56;70.57
47166;BME280;32930;51.112;13.762;2023-03-02T00:55:09;100175.78;;;0.56;70.66
47166;BME280;32930;51.112;13.762;2023-03-02T01:10:16;100158.22;;;0.42;70.78
47166;BME280;32930;51.112;13.762;2023-03-02T01:12:44;100152.75;;;0.35;71.02
47166;BME280;32930;51.112;13.762;2023-03-02T01:15:10;100142.38;;;0.45;70.83
47166;BME280;32930;51.112;13.762;2023-03-02T01:17:35;100147.22;;;0.57;71.16
47166;BME280;32930;51.112;13.762;2023-03-02T02:02:26;100121.69;;;0.21;70.97
47166;BME280;32930;51.112;13.762;2023-03-02T02:04:55;100123.53;;;0.23;71.55
47166;BME280;32930;51.112;13.762;2023-03-02T02:27:50;100133.38;;;-0.11;71.58
47166;BME280;32930;51.112;13.762;2023-03-02T02:30:17;100122.94;;;-0.17;71.76
47166;BME280;32930;51.112;13.762;2023-03-02T02:32:46;100116.66;;;0.06;71.98
47166;BME280;32930;51.112;13.762;2023-03-02T02:35:18;100115.91;;;-0.08;71.44
47166;BME280;32930;51.112;13.762;2023-03-02T03:50:05;100091.22;;;-0.43;71.84
47166;BME280;32930;51.112;13.762;2023-03-02T03:52:32;100084.84;;;-0.51;72.21
47166;BME280;32930;51.112;13.762;2023-03-02T05:04:36;100087.03;;;-0.85;71.71
47166;BME280;32930;51.112;13.762;2023-03-02T06:22:49;100096.72;;;-1.06;72.21
47166;BME280;32930;51.112;13.762;2023-03-02T06:25:25;100100.56;;;-0.98;72.53
47166;BME280;32930;51.112;13.762;2023-03-02T09:13:13;100034.47;;;5.98;56.67
47166;BME280;32930;51.112;13.762;2023-03-02T09:15:54;100026.94;;;6.30;56.88
47166;BME280;32930;51.112;13.762;2023-03-02T09:32:18;100015.28;;;7.30;50.02
47166;BME280;32930;51.112;13.762;2023-03-02T09:35:01;100016.03;;;7.59;52.43
47166;BME280;32930;51.112;13.762;2023-03-02T09:37:40;100012.16;;;7.75;52.77
47166;BME280;32930;51.112;13.762;2023-03-02T10:37:19;99993.44;;;8.93;33.91
47166;BME280;32930;51.112;13.762;2023-03-02T10:39:53;99990.88;;;8.94;33.27
47166;BME280;32930;51.112;13.762;2023-03-02T12:23:09;99899.72;;;8.99;35.21
47166;BME280;32930;51.112;13.762;2023-03-02T12:25:48;99901.66;;;9.13;37.07
47166;BME280;32930;51.112;13.762;2023-03-02T12:31:55;99895.78;;;9.20;36.71
47166;BME280;32930;51.112;13.762;2023-03-02T13:41:56;99823.50;;;8.33;40.01
47166;BME280;32930;51.112;13.762;2023-03-02T13:44:30;99823.75;;;8.47;41.06
47166;BME280;32930;51.112;13.762;2023-03-02T13:46:56;99822.06;;;8.46;41.68
47166;BME280;32930;51.112;13.762;2023-03-02T14:20:14;99799.53;;;8.28;41.04
47166;BME280;32930;51.112;13.762;2023-03-02T14:22:56;99797.03;;;8.31;41.08
47166;BME280;32930;51.112;13.762;2023-03-02T14:25:21;99796.44;;;8.43;40.97
47166;BME280;32930;51.112;13.762;2023-03-02T14:27:50;99792.72;;;8.27;40.86
47166;BME280;32930;51.112;13.762;2023-03-02T14:30:19;99788.41;;;8.26;41.83
47166;BME280;32930;51.112;13.762;2023-03-02T14:32:45;99789.41;;;8.34;41.14
47166;BME280;32930;51.112;13.762;2023-03-02T14:35:13;99788.44;;;8.27;40.77
47166;BME280;32930;51.112;13.762;2023-03-02T14:37:43;99781.63;;;8.26;40.53
47166;BME280;32930;51.112;13.762;2023-03-02T14:40:27;99781.69;;;8.31;41.73
47166;BME280;32930;51.112;13.762;2023-03-02T14:42:53;99773.06;;;8.26;42.57
47166;BME280;32930;51.112;13.762;2023-03-02T14:45:22;99768.81;;;8.25;41.82
47166;BME280;32930;51.112;13.762;2023-03-02T14:47:48;99770.81;;;8.40;41.69
47166;BME280;32930;51.112;13.762;2023-03-02T14:50:14;99776.53;;;8.28;42.23
47166;BME280;32930;51.112;13.762;2023-03-02T14:52:48;99766.25;;;8.25;42.38
47166;BME280;32930;51.112;13.762;2023-03-02T14:55:21;99769.03;;;8.35;42.39
47166;BME280;32930;51.112;13.762;2023-03-02T14:58:03;99757.09;;;8.36;43.13
47166;BME280;32930;51.112;13.762;2023-03-02T15:00:32;99757.84;;;8.30;43.18
47166;BME280;32930;51.112;13.762;2023-03-02T15:03:00;99755.28;;;8.32;42.70
47166;BME280;32930;51.112;13.762;2023-03-02T15:05:28;99752.63;;;8.26;43.28
47166;BME280;32930;51.112;13.762;2023-03-02T15:07:53;99755.22;;;8.27;42.94
47166;BME280;32930;51.112;13.762;2023-03-02T15:10:22;99751.66;;;8.18;43.38
47166;BME280;32930;51.112;13.762;2023-03-02T15:12:48;99748.25;;;8.19;43.80
47166;BME280;32930;51.112;13.762;2023-03-02T15:15:14;99750.03;;;8.23;43.86
47166;BME280;32930;51.112;13.762;2023-03-02T15:17:40;99745.16;;;8.36;43.17
47166;BME280;32930;51.112;13.762;2023-03-02T15:20:09;99748.34;;;8.23;44.18
47166;BME280;32930;51.112;13.762;2023-03-02T15:22:36;99746.50;;;8.16;45.42
47166;BME280;32930;51.112;13.762;2023-03-02T15:25:02;99741.44;;;8.19;46.06
47166;BME280;32930;51.112;13.762;2023-03-02T15:27:33;99736.25;;;8.15;46.22
47166;BME280;32930;51.112;13.762;2023-03-02T15:30:01;99738.09;;;8.22;46.51
47166;BME280;32930;51.112;13.762;2023-03-02T15:32:27;99735.31;;;8.09;46.13
47166;BME280;32930;51.112;13.762;2023-03-02T15:34:52;99736.31;;;8.18;46.18
47166;BME280;32930;51.112;13.762;2023-03-02T15:37:18;99731.81;;;8.04;47.10
47166;BME280;32930;51.112;13.762;2023-03-02T16:11:33;99740.41;;;8.09;47.22
47166;BME280;32930;51.112;13.762;2023-03-02T16:13:58;99732.34;;;7.86;50.38
47166;BME280;32930;51.112;13.762;2023-03-02T16:16:27;99741.63;;;7.83;48.92
47166;BME280;32930;51.112;13.762;2023-03-02T16:18:55;99737.25;;;7.77;49.44
47166;BME280;32930;51.112;13.762;2023-03-02T17:02:46;99776.06;;;6.16;55.94
47166;BME280;32930;51.112;13.762;2023-03-02T17:05:17;99770.75;;;6.08;56.77
47166;BME280;32930;51.112;13.762;2023-03-02T17:12:53;99781.31;;;5.92;56.92
47166;BME280;32930;51.112;13.762;2023-03-02T17:15:19;99782.09;;;5.89;56.97
47166;BME280;32930;51.112;13.762;2023-03-02T17:17:45;99791.91;;;5.75;56.80
47166;BME280;32930;51.112;13.762;2023-03-02T17:20:13;99788.31;;;5.69;57.06
47166;BME280;32930;51.112;13.762;2023-03-02T17:22:41;99791.69;;;5.68;57.54
47166;BME280;32930;51.112;13.762;2023-03-02T17:25:07;99786.38;;;5.60;57.92
47166;BME280;32930;51.112;13.762;2023-03-02T18:23:48;99810.19;;;5.33;62.15
47166;BME280;32930;51.112;13.762;2023-03-02T18:26:16;99810.31;;;5.38;62.07
47166;BME280;32930;51.112;13.762;2023-03-02T18:31:17;99804.56;;;5.44;62.23
47166;BME280;32930;51.112;13.762;2023-03-02T19:08:43;99841.66;;;5.37;69.91
47166;BME280;32930;51.112;13.762;2023-03-02T19:11:09;99846.69;;;5.35;69.97
47166;BME280;32930;51.112;13.762;2023-03-02T19:13:36;99848.38;;;5.35;70.53
47166;BME280;32930;51.112;13.762;2023-03-02T19:19:23;99851.59;;;5.29;70.80
47166;BME280;32930;51.112;13.762;2023-03-02T19:21:49;99850.03;;;5.33;71.15
47166;BME280;32930;51.112;13.762;2023-03-02T21:38:37;99878.66;;;3.58;77.09
47166;BME280;32930;51.112;13.762;2023-03-02T21:41:04;99874.94;;;3.49;76.97
47166;BME280;32930;51.112;13.762;2023-03-02T21:43:30;99868.72;;;3.41;75.96
47166;BME280;32930;51.112;13.762;2023-03-02T21:45:56;99877.25;;;3.43;76.39
47166;BME280;32930;51.112;13.762;2023-03-02T21:48:22;99873.09;;;3.45;76.24
47166;BME280;32930;51.112;13.762;2023-03-02T21:50:48;99870.34;;;3.39;75.35
47166;BME280;32930;51.112;13.762;2023-03-02T21:53:14;99872.19;;;3.43;75.56
47166;BME280;32930;51.112;13.762;2023-03-02T21:55:40;99875.38;;;3.38;75.20
